Time;durP1;ratioP1;P1;durP2;ratioP2;P2;SDS_P1;SDS_P2;PMS_P1;PMS_P2;Temp;Humidity;BMP_temperature;BMP_pressure;BME280_temperature;BME280_humidity;BME280_pressure;Samples;Min_cycle;Max_cycle;Signal;HPM_P1;HPM_P2
2022/04/24 00:01:47;;;;;;;0.30;0.30;;;10.70;99.90;;;;;;5055518;28;20166;-67
2022/04/24 00:04:13;;;;;;;0.30;0.30;;;10.70;99.90;;;;;;5055773;28;20654;-68
2022/04/24 00:06:41;;;;;;;0.40;0.40;;;10.60;99.90;;;;;;5055678;28;20174;-68
2022/04/24 00:09:07;;;;;;;8.18;2.38;;;10.50;99.90;;;;;;5055411;28;20225;-68
2022/04/24 00:11:33;;;;;;;3.40;0.77;;;10.50;99.90;;;;;;5055251;28;20202;-68
2022/04/24 00:13:58;;;;;;;5.30;2.50;;;10.50;99.90;;;;;;5055607;28;20405;-69
2022/04/24 00:16:24;;;;;;;0.50;0.50;;;10.60;99.90;;;;;;5055522;28;20201;-69
2022/04/24 00:18:50;;;;;;;0.30;0.30;;;10.70;99.90;;;;;;5055293;28;20193;-68
2022/04/24 00:21:16;;;;;;;0.50;0.50;;;10.60;99.90;;;;;;5055182;28;20174;-67
2022/04/24 00:23:41;;;;;;;0.50;0.50;;;10.50;99.90;;;;;;5055421;28;20166;-67
2022/04/24 00:26:07;;;;;;;0.30;0.30;;;10.50;99.90;;;;;;5055395;28;20167;-68
2022/04/24 00:28:33;;;;;;;0.40;0.40;;;10.40;99.90;;;;;;5055052;28;20178;-67
2022/04/24 00:30:59;;;;;;;0.60;0.60;;;10.40;99.90;;;;;;5054963;28;20174;-68
2022/04/24 00:33:24;;;;;;;0.37;0.37;;;10.30;99.90;;;;;;5055381;28;20173;-68
2022/04/24 00:35:50;;;;;;;0.30;0.30;;;10.30;99.90;;;;;;5055002;28;20412;-68
2022/04/24 00:38:15;;;;;;;0.30;0.30;;;10.30;99.90;;;;;;5055170;28;20254;-68
2022/04/24 00:40:45;;;;;;;0.30;0.30;;;10.20;99.90;;;;;;5054726;28;20194;-68
2022/04/24 00:43:11;;;;;;;0.40;0.30;;;10.20;99.90;;;;;;5055072;28;20166;-68
2022/04/24 00:45:37;;;;;;;0.63;0.63;;;10.20;99.90;;;;;;5054788;28;20181;-67
2022/04/24 00:48:02;;;;;;;0.30;0.30;;;10.10;99.90;;;;;;5054839;28;20170;-67
2022/04/24 00:50:28;;;;;;;1.40;1.40;;;10.20;99.90;;;;;;5054567;28;20247;-68
2022/04/24 00:52:54;;;;;;;0.30;0.30;;;10.30;99.90;;;;;;5054860;28;20420;-68
2022/04/24 00:55:23;;;;;;;0.30;0.30;;;10.30;99.90;;;;;;5054616;28;20178;-68
2022/04/24 00:57:49;;;;;;;0.40;0.40;;;10.30;99.90;;;;;;5054530;28;20202;-68
2022/04/24 01:00:15;;;;;;;0.30;0.30;;;10.10;99.90;;;;;;5054322;28;20559;-68
2022/04/24 01:02:41;;;;;;;0.30;0.30;;;9.80;99.90;;;;;;5054518;28;20631;-68
2022/04/24 01:05:08;;;;;;;0.30;0.30;;;9.50;99.90;;;;;;5053706;28;20178;-68
2022/04/24 01:07:34;;;;;;;0.30;0.30;;;9.30;99.90;;;;;;5055111;28;20176;-68
2022/04/24 01:10:00;;;;;;;0.30;0.30;;;9.20;99.90;;;;;;5054082;28;20201;-67
2022/04/24 01:12:25;;;;;;;0.30;0.30;;;9.10;99.90;;;;;;5054295;28;20173;-68
2022/04/24 01:14:51;;;;;;;0.30;0.30;;;8.90;99.90;;;;;;5053058;28;20650;-68
2022/04/24 01:17:17;;;;;;;0.30;0.30;;;8.90;99.90;;;;;;5054261;28;20776;-67
2022/04/24 01:19:44;;;;;;;0.40;0.40;;;8.60;99.90;;;;;;5054023;28;20185;-68
2022/04/24 01:22:10;;;;;;;0.30;0.30;;;8.50;99.90;;;;;;5052744;28;20196;-68
2022/04/24 01:24:35;;;;;;;0.30;0.30;;;8.30;99.90;;;;;;5054267;28;20401;-68
2022/04/24 01:27:01;;;;;;;0.30;0.30;;;8.30;99.90;;;;;;5054245;28;20236;-68
2022/04/24 01:29:27;;;;;;;0.30;0.30;;;8.40;99.90;;;;;;5053982;28;20186;-67
2022/04/24 01:31:53;;;;;;;0.30;0.30;;;8.60;99.90;;;;;;5053943;28;20184;-68
2022/04/24 01:34:20;;;;;;;0.30;0.30;;;8.60;99.90;;;;;;5054062;28;20533;-68
2022/04/24 01:36:46;;;;;;;0.30;0.30;;;8.70;99.90;;;;;;5053963;28;20196;-67
2022/04/24 01:39:14;;;;;;;0.40;0.40;;;8.70;99.90;;;;;;5053884;28;20185;-67
2022/04/24 01:41:39;;;;;;;0.30;0.30;;;8.80;99.90;;;;;;5053650;28;20564;-68
2022/04/24 01:44:05;;;;;;;0.30;0.30;;;8.70;99.90;;;;;;5053916;28;20248;-68
2022/04/24 01:46:31;;;;;;;0.30;0.30;;;8.60;99.90;;;;;;5053858;28;20179;-68
2022/04/24 01:48:57;;;;;;;0.30;0.30;;;8.50;99.90;;;;;;5053812;28;20331;-68
2022/04/24 01:51:22;;;;;;;0.30;0.30;;;8.40;99.90;;;;;;5053503;28;20223;-68
2022/04/24 01:53:48;;;;;;;0.30;0.30;;;8.30;99.90;;;;;;5053771;28;20250;-68
2022/04/24 01:56:14;;;;;;;0.30;0.30;;;8.30;99.90;;;;;;5053720;28;20243;-68
2022/04/24 01:58:40;;;;;;;0.30;0.30;;;8.30;99.90;;;;;;5053756;28;20189;-67
2022/04/24 02:01:06;;;;;;;0.40;0.40;;;8.20;99.90;;;;;;5052093;28;20172;-68
2022/04/24 02:03:33;;;;;;;0.30;0.30;;;8.20;99.90;;;;;;5053772;28;20395;-68
2022/04/24 02:06:00;;;;;;;0.30;0.30;;;8.00;99.90;;;;;;5053683;28;20177;-67
2022/04/24 02:08:27;;;;;;;0.30;0.30;;;7.90;99.90;;;;;;5053792;28;20177;-68
2022/04/24 02:10:53;;;;;;;0.40;0.40;;;7.80;99.90;;;;;;5053431;28;20250;-68
2022/04/24 02:13:19;;;;;;;0.40;0.40;;;7.70;99.90;;;;;;5053472;28;20206;-68
2022/04/24 02:15:46;;;;;;;0.30;0.30;;;7.70;99.90;;;;;;5053367;28;20952;-68
2022/04/24 02:18:11;;;;;;;0.30;0.30;;;7.80;99.90;;;;;;5053541;28;20454;-68
2022/04/24 02:20:37;;;;;;;0.30;0.30;;;7.60;99.90;;;;;;5053031;28;20656;-67
2022/04/24 02:23:03;;;;;;;0.30;0.30;;;7.70;99.90;;;;;;5053323;28;20531;-68
2022/04/24 02:25:30;;;;;;;0.30;0.30;;;7.80;99.90;;;;;;5053245;28;20426;-68
2022/04/24 02:27:56;;;;;;;0.30;0.30;;;7.80;99.90;;;;;;5053308;28;20201;-68
2022/04/24 02:30:24;;;;;;;0.40;0.40;;;7.90;99.90;;;;;;5053009;28;20208;-68
2022/04/24 02:32:51;;;;;;;0.30;0.30;;;7.80;99.90;;;;;;5053488;28;20203;-67
2022/04/24 02:35:17;;;;;;;0.30;0.30;;;7.80;99.90;;;;;;5053320;28;20177;-67
2022/04/24 02:37:43;;;;;;;0.40;0.40;;;7.80;99.90;;;;;;5053054;28;20274;-67
2022/04/24 02:40:14;;;;;;;0.30;0.30;;;7.80;99.90;;;;;;5052899;28;20622;-68
2022/04/24 02:42:40;;;;;;;0.38;0.38;;;7.90;99.90;;;;;;5053333;28;20428;-67
2022/04/24 02:45:09;;;;;;;0.30;0.30;;;7.90;99.90;;;;;;5053297;28;20178;-68
2022/04/24 02:47:38;;;;;;;0.30;0.30;;;7.90;99.90;;;;;;5053220;28;20641;-67
2022/04/24 02:50:04;;;;;;;0.30;0.30;;;7.90;99.90;;;;;;5052955;28;20257;-68
2022/04/24 02:52:30;;;;;;;0.30;0.30;;;7.70;99.90;;;;;;5052927;28;20263;-68
2022/04/24 02:54:55;;;;;;;0.30;0.30;;;7.60;99.90;;;;;;5053015;28;20276;-68
2022/04/24 02:57:21;;;;;;;0.40;0.40;;;7.50;99.90;;;;;;5052927;28;20282;-68
2022/04/24 02:59:49;;;;;;;0.30;0.30;;;7.40;99.90;;;;;;5052977;28;20187;-68
2022/04/24 03:02:16;;;;;;;0.30;0.30;;;7.40;99.90;;;;;;5053181;28;20403;-68
2022/04/24 03:04:41;;;;;;;0.40;0.40;;;7.40;99.90;;;;;;5053096;28;20175;-68
2022/04/24 03:07:07;;;;;;;0.30;0.30;;;7.40;99.90;;;;;;5052894;28;20180;-67
2022/04/24 03:09:33;;;;;;;0.40;0.40;;;7.40;99.90;;;;;;5052778;28;20657;-68
2022/04/24 03:11:59;;;;;;;0.40;0.40;;;7.40;99.90;;;;;;5052782;28;20199;-67
2022/04/24 03:14:24;;;;;;;0.37;0.37;;;7.40;99.90;;;;;;5052923;28;20638;-67
2022/04/24 03:16:50;;;;;;;0.40;0.40;;;7.40;99.90;;;;;;5052943;28;20242;-68
2022/04/24 03:19:16;;;;;;;0.30;0.30;;;7.50;99.90;;;;;;5053169;28;20192;-67
2022/04/24 03:21:41;;;;;;;0.40;0.40;;;7.40;99.90;;;;;;5052455;28;20185;-68
2022/04/24 03:24:07;;;;;;;0.30;0.30;;;7.50;99.90;;;;;;5051551;28;20168;-68
2022/04/24 03:26:33;;;;;;;0.40;0.40;;;7.60;99.90;;;;;;5053189;28;20706;-68
2022/04/24 03:28:59;;;;;;;0.30;0.30;;;7.70;99.90;;;;;;5056163;28;20228;-68
2022/04/24 03:31:25;;;;;;;0.30;0.30;;;7.70;99.90;;;;;;5056089;28;20179;-67
2022/04/24 03:33:52;;;;;;;0.40;0.40;;;7.50;99.90;;;;;;5056383;28;20167;-68
2022/04/24 03:36:20;;;;;;;0.30;0.30;;;7.60;99.90;;;;;;5056444;28;20278;-68
2022/04/24 03:38:47;;;;;;;0.30;0.30;;;7.70;99.90;;;;;;5056051;28;20189;-67
2022/04/24 03:41:12;;;;;;;0.30;0.30;;;7.60;99.90;;;;;;5056139;28;20583;-68
2022/04/24 03:43:38;;;;;;;0.30;0.30;;;7.60;99.90;;;;;;5055953;28;20176;-68
2022/04/24 03:46:05;;;;;;;0.40;0.40;;;7.70;99.90;;;;;;5056123;28;20173;-68
2022/04/24 03:48:31;;;;;;;0.40;0.40;;;7.80;99.90;;;;;;5055792;28;20410;-68
2022/04/24 03:50:57;;;;;;;0.30;0.30;;;7.80;99.90;;;;;;5055764;28;20168;-68
2022/04/24 03:53:23;;;;;;;0.30;0.30;;;7.90;99.90;;;;;;5055930;28;20655;-67
2022/04/24 03:55:48;;;;;;;0.30;0.30;;;7.80;99.90;;;;;;5056015;28;20175;-67
2022/04/24 03:58:14;;;;;;;0.30;0.30;;;7.80;99.90;;;;;;5055854;28;20201;-67
2022/04/24 04:00:40;;;;;;;0.30;0.30;;;7.80;99.90;;;;;;5055468;28;20196;-67
2022/04/24 04:03:05;;;;;;;0.30;0.30;;;7.70;99.90;;;;;;5055870;28;20178;-68
2022/04/24 04:05:31;;;;;;;0.30;0.30;;;7.70;99.90;;;;;;5055677;28;20169;-68
2022/04/24 04:07:57;;;;;;;0.30;0.30;;;7.90;99.90;;;;;;5055815;28;20200;-68
2022/04/24 04:10:23;;;;;;;0.30;0.30;;;7.90;99.90;;;;;;5055330;28;20193;-67
2022/04/24 04:12:51;;;;;;;0.30;0.30;;;8.00;99.90;;;;;;5054397;28;20175;-68
2022/04/24 04:15:17;;;;;;;0.30;0.30;;;8.00;99.90;;;;;;5055560;28;20173;-68
2022/04/24 04:17:44;;;;;;;0.83;0.70;;;8.00;99.90;;;;;;5055321;28;20211;-68
2022/04/24 04:20:11;;;;;;;0.30;0.30;;;7.90;99.90;;;;;;5055101;28;20188;-68
2022/04/24 04:22:48;;;;;;;0.30;0.30;;;7.70;99.90;;;;;;5055283;28;20214;-67
2022/04/24 04:25:14;;;;;;;0.30;0.30;;;7.70;99.90;;;;;;5055403;28;20214;-68
2022/04/24 04:27:39;;;;;;;0.30;0.30;;;7.70;99.90;;;;;;5055371;28;20175;-67
2022/04/24 04:30:06;;;;;;;0.40;0.40;;;7.70;99.90;;;;;;5054908;28;20614;-67
2022/04/24 04:32:31;;;;;;;0.30;0.30;;;7.70;99.90;;;;;;5055079;28;20404;-67
2022/04/24 04:34:57;;;;;;;0.30;0.30;;;7.70;99.90;;;;;;5055269;28;20532;-68
2022/04/24 04:37:23;;;;;;;0.30;0.30;;;7.70;99.90;;;;;;5053770;28;20673;-68
2022/04/24 04:39:49;;;;;;;0.40;0.40;;;7.90;99.90;;;;;;5053640;28;20200;-68
2022/04/24 04:42:14;;;;;;;0.30;0.30;;;7.90;99.90;;;;;;5055112;28;20256;-68
2022/04/24 04:44:40;;;;;;;0.30;0.30;;;8.00;99.90;;;;;;5055025;28;20271;-68
2022/04/24 04:47:06;;;;;;;0.30;0.30;;;8.00;99.90;;;;;;5055173;28;20226;-69
2022/04/24 04:49:32;;;;;;;9.23;1.65;;;8.00;99.90;;;;;;5054688;28;20196;-67
2022/04/24 04:51:57;;;;;;;0.30;0.30;;;8.00;99.90;;;;;;5054721;28;20530;-68
2022/04/24 04:54:23;;;;;;;0.40;0.40;;;8.00;99.90;;;;;;5054789;28;20235;-67
2022/04/24 04:56:49;;;;;;;0.30;0.30;;;8.00;99.90;;;;;;5054795;28;20192;-67
2022/04/24 04:59:14;;;;;;;0.30;0.30;;;7.80;99.90;;;;;;5054697;28;20214;-67
2022/04/24 05:01:40;;;;;;;0.30;0.30;;;7.90;99.90;;;;;;5054509;28;20259;-67
2022/04/24 05:04:06;;;;;;;0.30;0.30;;;8.00;99.90;;;;;;5054548;28;20171;-68
2022/04/24 05:06:32;;;;;;;0.30;0.30;;;8.00;99.90;;;;;;5054589;28;20184;-68
2022/04/24 05:08:57;;;;;;;0.30;0.30;;;7.90;99.90;;;;;;5054424;28;20196;-67
2022/04/24 05:11:23;;;;;;;0.33;0.33;;;7.80;99.90;;;;;;5054288;28;20635;-67
2022/04/24 05:13:49;;;;;;;0.40;0.40;;;8.00;99.90;;;;;;5054510;28;20333;-68
2022/04/24 05:16:14;;;;;;;0.30;0.30;;;8.10;99.90;;;;;;5054466;28;20439;-67
2022/04/24 05:18:40;;;;;;;0.30;0.30;;;8.10;99.90;;;;;;5054443;28;20200;-68
2022/04/24 05:21:06;;;;;;;0.33;0.33;;;8.10;99.90;;;;;;5053924;28;20191;-67
2022/04/24 05:23:31;;;;;;;0.30;0.30;;;8.20;99.90;;;;;;5054514;28;20177;-68
2022/04/24 05:25:58;;;;;;;0.30;0.30;;;8.20;99.90;;;;;;5054299;28;20572;-68
2022/04/24 05:28:23;;;;;;;0.30;0.30;;;8.10;99.90;;;;;;5054190;28;20256;-68
2022/04/24 05:30:49;;;;;;;0.30;0.30;;;8.10;99.90;;;;;;5053858;28;20260;-68
2022/04/24 05:33:18;;;;;;;0.40;0.40;;;8.30;99.90;;;;;;5054026;28;20597;-68
2022/04/24 05:35:44;;;;;;;0.30;0.30;;;8.30;99.90;;;;;;5054026;28;20180;-67
2022/04/24 05:38:10;;;;;;;0.30;0.30;;;8.30;99.90;;;;;;5054027;28;20201;-67
2022/04/24 05:40:36;;;;;;;0.40;0.40;;;8.20;99.90;;;;;;5053659;28;20548;-68
2022/04/24 05:43:01;;;;;;;0.30;0.30;;;8.30;99.90;;;;;;5054047;28;20196;-68
2022/04/24 05:45:27;;;;;;;0.30;0.30;;;8.40;99.90;;;;;;5053843;28;20526;-68
2022/04/24 05:47:56;;;;;;;0.40;0.40;;;8.40;99.90;;;;;;5053807;28;20191;-68
2022/04/24 05:50:23;;;;;;;0.30;0.30;;;8.40;99.90;;;;;;5051874;28;20201;-68
2022/04/24 05:52:49;;;;;;;0.30;0.30;;;8.40;99.90;;;;;;5053952;28;20195;-68
2022/04/24 05:55:15;;;;;;;0.30;0.30;;;8.50;99.90;;;;;;5053816;28;20268;-68
2022/04/24 05:57:41;;;;;;;0.30;0.30;;;8.40;99.90;;;;;;5053564;28;20457;-68
2022/04/24 06:00:12;;;;;;;0.30;0.30;;;8.50;99.90;;;;;;5053407;28;20661;-67
2022/04/24 06:02:39;;;;;;;0.30;0.30;;;8.50;99.90;;;;;;5053675;28;20169;-68
2022/04/24 06:05:05;;;;;;;0.30;0.30;;;8.70;99.90;;;;;;5053678;28;20176;-68
2022/04/24 06:07:31;;;;;;;0.30;0.30;;;8.70;99.90;;;;;;5052389;28;20178;-68
2022/04/24 06:09:57;;;;;;;0.30;0.30;;;8.60;99.90;;;;;;5053201;28;20200;-68
2022/04/24 06:12:22;;;;;;;0.30;0.30;;;8.50;99.90;;;;;;5053479;28;20259;-67
2022/04/24 06:14:48;;;;;;;0.33;0.33;;;8.60;99.90;;;;;;5053527;28;20255;-68
2022/04/24 06:17:14;;;;;;;0.40;0.40;;;8.70;99.90;;;;;;5053428;28;20298;-68
2022/04/24 06:19:39;;;;;;;0.30;0.30;;;8.80;99.90;;;;;;5053559;28;20189;-68
2022/04/24 06:22:05;;;;;;;0.30;0.30;;;8.80;99.90;;;;;;5053256;28;20189;-68
2022/04/24 06:24:31;;;;;;;0.30;0.30;;;8.80;99.90;;;;;;5053254;28;20165;-67
2022/04/24 06:26:56;;;;;;;0.30;0.30;;;8.90;99.90;;;;;;5053296;28;20408;-68
2022/04/24 06:29:22;;;;;;;0.30;0.30;;;9.00;99.90;;;;;;5053296;28;20611;-68
2022/04/24 06:31:48;;;;;;;0.30;0.30;;;9.10;99.90;;;;;;5053287;28;20598;-68
2022/04/24 06:34:13;;;;;;;0.30;0.30;;;9.10;99.90;;;;;;5053365;28;20173;-67
2022/04/24 06:36:39;;;;;;;0.30;0.30;;;9.10;99.90;;;;;;5053302;28;20193;-68
2022/04/24 06:39:05;;;;;;;0.30;0.30;;;8.90;99.90;;;;;;5053176;28;20233;-68
2022/04/24 06:41:30;;;;;;;0.30;0.30;;;9.00;99.90;;;;;;5053030;28;20168;-68
2022/04/24 06:43:56;;;;;;;0.30;0.30;;;9.00;99.90;;;;;;5053180;28;20409;-68
2022/04/24 06:46:23;;;;;;;0.30;0.30;;;9.10;99.90;;;;;;5053431;28;20181;-68
2022/04/24 06:48:49;;;;;;;0.30;0.30;;;9.20;99.90;;;;;;5053206;28;20248;-69
2022/04/24 06:51:15;;;;;;;0.30;0.30;;;9.30;99.90;;;;;;5052943;28;20166;-68
2022/04/24 06:53:41;;;;;;;0.30;0.30;;;9.50;99.90;;;;;;5053225;28;20400;-67
2022/04/24 06:56:07;;;;;;;0.30;0.30;;;9.50;99.90;;;;;;5052889;28;20396;-68
2022/04/24 06:58:33;;;;;;;0.30;0.30;;;9.60;99.90;;;;;;5052900;28;20192;-68
2022/04/24 07:00:59;;;;;;;0.30;0.30;;;9.60;99.20;;;;;;5052934;28;20174;-68
2022/04/24 07:03:26;;;;;;;0.40;0.40;;;9.60;99.00;;;;;;5056451;28;20259;-67
2022/04/24 07:06:00;;;;;;;0.30;0.30;;;9.60;98.90;;;;;;5056814;28;20170;-68
2022/04/24 07:08:26;;;;;;;0.30;0.30;;;9.70;99.30;;;;;;5057282;28;20180;-69
2022/04/24 07:10:55;;;;;;;0.30;0.30;;;9.70;99.00;;;;;;5056857;28;20551;-69
2022/04/24 07:13:22;;;;;;;0.30;0.30;;;9.70;99.60;;;;;;5056668;28;20412;-67
2022/04/24 07:15:47;;;;;;;0.30;0.30;;;9.80;98.90;;;;;;5056747;28;20308;-67
2022/04/24 07:18:13;;;;;;;0.30;0.30;;;9.80;97.70;;;;;;5056726;28;20288;-67
2022/04/24 07:20:39;;;;;;;0.30;0.30;;;9.70;98.00;;;;;;5056228;28;20272;-68
2022/04/24 07:23:07;;;;;;;0.30;0.30;;;9.90;98.20;;;;;;5056347;28;20247;-68
2022/04/24 07:25:35;;;;;;;0.30;0.30;;;9.90;99.10;;;;;;5056455;28;20201;-68
2022/04/24 07:28:00;;;;;;;0.30;0.30;;;9.90;97.90;;;;;;5056380;28;20178;-67
2022/04/24 07:30:26;;;;;;;0.30;0.30;;;10.10;97.30;;;;;;5056123;28;20255;-68
2022/04/24 07:32:56;;;;;;;0.30;0.30;;;10.10;96.50;;;;;;5055306;28;20686;-68
2022/04/24 07:35:30;;;;;;;0.30;0.30;;;10.00;96.30;;;;;;5056119;28;20175;-68
2022/04/24 07:37:56;;;;;;;0.30;0.30;;;10.00;96.80;;;;;;5056200;28;20198;-68
2022/04/24 07:40:24;;;;;;;0.30;0.30;;;10.20;96.70;;;;;;5055944;28;20580;-68
2022/04/24 07:42:58;;;;;;;0.30;0.30;;;10.40;96.50;;;;;;5054950;28;20182;-69
2022/04/24 07:45:28;;;;;;;0.30;0.30;;;10.70;97.00;;;;;;5056294;28;20630;-68
2022/04/24 07:47:55;;;;;;;0.30;0.30;;;10.80;95.50;;;;;;5055968;28;20178;-68
2022/04/24 07:50:24;;;;;;;0.30;0.30;;;10.90;95.80;;;;;;5054543;28;20193;-68
2022/04/24 07:52:50;;;;;;;0.30;0.30;;;10.90;95.70;;;;;;5056140;28;20178;-68
2022/04/24 07:55:18;;;;;;;0.30;0.30;;;11.00;95.30;;;;;;5055978;28;20177;-67
2022/04/24 07:57:45;;;;;;;0.30;0.30;;;11.10;95.30;;;;;;5055888;28;20681;-68
2022/04/24 08:00:11;;;;;;;0.30;0.30;;;11.20;94.60;;;;;;5055536;28;20193;-68
2022/04/24 08:03:01;;;;;;;0.30;0.30;;;11.20;94.70;;;;;;5055563;28;20263;-67
2022/04/24 08:05:31;;;;;;;0.30;0.30;;;11.20;93.80;;;;;;5055932;28;20269;-68
2022/04/24 08:08:02;;;;;;;0.30;0.30;;;10.60;93.60;;;;;;5055858;28;20174;-67
2022/04/24 08:10:30;;;;;;;0.32;0.32;;;10.50;94.90;;;;;;5054139;28;20666;-67
2022/04/24 08:12:56;;;;;;;0.30;0.30;;;10.50;95.30;;;;;;5055470;28;20178;-68
2022/04/24 08:15:22;;;;;;;0.30;0.30;;;10.50;94.80;;;;;;5055482;28;20178;-68
2022/04/24 08:17:47;;;;;;;0.30;0.30;;;10.40;95.00;;;;;;5055613;28;20205;-68
2022/04/24 08:20:14;;;;;;;0.30;0.30;;;10.30;95.80;;;;;;5055178;28;20421;-68
2022/04/24 08:22:48;;;;;;;0.30;0.30;;;10.50;95.90;;;;;;5055256;28;20186;-67
2022/04/24 08:25:17;;;;;;;0.40;0.40;;;10.70;95.30;;;;;;5055330;28;20170;-67
2022/04/24 08:27:43;;;;;;;0.30;0.30;;;10.90;94.90;;;;;;5055253;28;20174;-68
2022/04/24 08:30:11;;;;;;;0.30;0.30;;;11.10;95.10;;;;;;5054964;28;20194;-68
2022/04/24 08:32:38;;;;;;;0.30;0.30;;;11.20;93.90;;;;;;5054995;28;20186;-67
2022/04/24 08:35:06;;;;;;;0.30;0.30;;;11.30;93.40;;;;;;5055101;28;20597;-69
2022/04/24 08:37:32;;;;;;;0.30;0.30;;;11.40;93.30;;;;;;5055053;28;20204;-69
2022/04/24 08:39:57;;;;;;;0.30;0.30;;;11.30;93.20;;;;;;5054931;28;20190;-68
2022/04/24 08:42:23;;;;;;;0.30;0.30;;;11.60;93.00;;;;;;5055012;28;20166;-67
2022/04/24 08:44:50;;;;;;;0.30;0.30;;;11.80;93.30;;;;;;5055023;28;20249;-67
2022/04/24 08:47:17;;;;;;;0.30;0.30;;;11.90;92.30;;;;;;5054947;28;20163;-68
2022/04/24 08:49:43;;;;;;;0.30;0.30;;;11.90;93.40;;;;;;5054725;28;20228;-68
2022/04/24 08:52:10;;;;;;;0.30;0.30;;;11.90;92.50;;;;;;5054992;28;20174;-69
2022/04/24 08:54:38;;;;;;;0.30;0.30;;;11.80;92.50;;;;;;5054892;28;20186;-69
2022/04/24 08:57:04;;;;;;;0.30;0.30;;;11.80;91.90;;;;;;5054614;28;20198;-68
2022/04/24 08:59:29;;;;;;;0.30;0.30;;;11.80;91.50;;;;;;5054650;28;20383;-67
2022/04/24 09:01:58;;;;;;;0.30;0.30;;;11.60;92.00;;;;;;5054614;28;20696;-69
2022/04/24 09:04:25;;;;;;;0.30;0.30;;;11.60;93.10;;;;;;5054719;28;20170;-69
2022/04/24 09:06:57;;;;;;;0.30;0.30;;;11.60;92.20;;;;;;5054441;28;20171;-68
2022/04/24 09:09:23;;;;;;;0.30;0.30;;;11.60;92.80;;;;;;5054446;28;20185;-68
2022/04/24 09:11:49;;;;;;;0.30;0.30;;;11.70;93.20;;;;;;5054324;28;20185;-68
2022/04/24 09:14:15;;;;;;;0.30;0.30;;;11.40;91.70;;;;;;5054465;28;20178;-68
2022/04/24 09:16:51;;;;;;;0.40;0.40;;;11.30;93.00;;;;;;5054386;28;20956;-67
2022/04/24 09:19:21;;;;;;;0.40;0.40;;;11.50;93.40;;;;;;5054475;28;20770;-68
2022/04/24 09:21:51;;;;;;;0.30;0.30;;;11.60;93.30;;;;;;5053925;28;20188;-69
2022/04/24 09:24:17;;;;;;;0.30;0.30;;;11.60;92.50;;;;;;5052382;28;20174;-68
2022/04/24 09:26:56;;;;;;;0.30;0.30;;;11.50;92.30;;;;;;5054200;28;20688;-68
2022/04/24 09:29:23;;;;;;;0.30;0.30;;;11.40;92.40;;;;;;5054075;28;20190;-68
2022/04/24 09:31:50;;;;;;;0.30;0.30;;;11.60;91.90;;;;;;5054058;28;20175;-68
2022/04/24 09:34:18;;;;;;;0.30;0.30;;;11.70;91.30;;;;;;5054443;28;20546;-68
2022/04/24 09:36:45;;;;;;;0.30;0.30;;;11.90;91.50;;;;;;5053943;28;20209;-68
2022/04/24 09:39:10;;;;;;;0.30;0.30;;;12.10;91.20;;;;;;5054113;28;20265;-68
2022/04/24 09:41:36;;;;;;;0.30;0.30;;;12.20;91.10;;;;;;5053848;28;20648;-68
2022/04/24 09:44:15;;;;;;;0.30;0.30;;;12.10;90.90;;;;;;5052803;28;20170;-67
2022/04/24 09:46:41;;;;;;;0.30;0.30;;;12.00;91.70;;;;;;5053798;28;20183;-68
2022/04/24 09:49:10;;;;;;;0.30;0.30;;;12.00;92.10;;;;;;5053733;28;20190;-67
2022/04/24 09:51:44;;;;;;;0.30;0.30;;;12.00;92.10;;;;;;5053669;28;20401;-67
2022/04/24 09:54:10;;;;;;;0.30;0.30;;;12.10;91.90;;;;;;5053864;28;20965;-68
2022/04/24 09:56:38;;;;;;;0.30;0.30;;;11.80;92.50;;;;;;5053728;28;20436;-68
2022/04/24 09:59:05;;;;;;;0.30;0.30;;;11.90;91.70;;;;;;5053659;28;20196;-67
2022/04/24 10:01:32;;;;;;;0.30;0.30;;;12.10;92.00;;;;;;5053495;28;20503;-67
2022/04/24 10:03:58;;;;;;;0.30;0.30;;;11.80;91.50;;;;;;5053560;28;20891;-68
2022/04/24 10:06:24;;;;;;;0.30;0.30;;;11.90;92.00;;;;;;5053609;28;20166;-67
2022/04/24 10:08:51;;;;;;;0.30;0.30;;;12.00;92.20;;;;;;5053540;28;20198;-69
2022/04/24 10:11:17;;;;;;;0.30;0.30;;;12.00;92.10;;;;;;5053273;28;20401;-68
2022/04/24 10:13:45;;;;;;;0.30;0.30;;;11.80;91.60;;;;;;5053461;28;20964;-68
2022/04/24 10:16:23;;;;;;;0.30;0.30;;;11.80;92.50;;;;;;5053477;28;20596;-68
2022/04/24 10:18:58;;;;;;;0.30;0.30;;;11.60;91.80;;;;;;5053495;28;20236;-67
2022/04/24 10:21:35;;;;;;;0.30;0.30;;;11.30;93.70;;;;;;5053005;28;20181;-68
2022/04/24 10:24:12;;;;;;;0.30;0.30;;;11.40;93.60;;;;;;5053437;28;20236;-68
2022/04/24 10:26:38;;;;;;;0.30;0.30;;;11.20;93.10;;;;;;5053250;28;20178;-68
2022/04/24 10:29:09;;;;;;;0.30;0.30;;;11.20;93.60;;;;;;5053173;28;20433;-67
2022/04/24 10:31:45;;;;;;;0.30;0.30;;;11.30;94.00;;;;;;5051984;28;20178;-67
2022/04/24 10:34:13;;;;;;;0.30;0.30;;;11.50;93.90;;;;;;5053389;28;20170;-68
2022/04/24 10:36:54;;;;;;;0.30;0.30;;;11.60;93.80;;;;;;5055578;28;20206;-68
2022/04/24 10:39:23;;;;;;;0.30;0.30;;;11.50;93.30;;;;;;5055930;28;20785;-67
2022/04/24 10:42:00;;;;;;;0.30;0.30;;;11.20;94.90;;;;;;5057225;28;20166;-68
2022/04/24 10:44:27;;;;;;;0.30;0.30;;;11.30;93.70;;;;;;5056138;28;20172;-67
2022/04/24 10:46:57;;;;;;;0.30;0.30;;;11.30;94.90;;;;;;5057195;28;20193;-68
2022/04/24 10:49:25;;;;;;;0.30;0.30;;;11.20;94.10;;;;;;5057441;28;20197;-68
2022/04/24 10:52:01;;;;;;;0.30;0.30;;;10.90;94.10;;;;;;5056983;28;20265;-67
2022/04/24 10:54:33;;;;;;;0.30;0.30;;;11.10;94.70;;;;;;5057286;28;20166;-68
2022/04/24 10:56:59;;;;;;;0.30;0.30;;;11.00;94.90;;;;;;5057078;28;20198;-68
2022/04/24 10:59:25;;;;;;;0.30;0.30;;;11.30;95.30;;;;;;5057021;28;20186;-68
2022/04/24 11:01:58;;;;;;;0.30;0.30;;;11.30;95.40;;;;;;5056692;28;20167;-67
2022/04/24 11:04:25;;;;;;;0.30;0.30;;;11.50;95.30;;;;;;5056955;28;20768;-68
2022/04/24 11:07:02;;;;;;;0.30;0.30;;;11.80;95.50;;;;;;5056994;28;20506;-68
2022/04/24 11:09:36;;;;;;;0.30;0.30;;;12.00;95.70;;;;;;5056694;28;20194;-68
2022/04/24 11:12:10;;;;;;;0.40;0.40;;;11.90;94.00;;;;;;5056724;28;20925;-69
2022/04/24 11:14:37;;;;;;;0.30;0.30;;;11.70;94.20;;;;;;5056698;28;20415;-68
2022/04/24 11:17:05;;;;;;;0.30;0.30;;;11.50;94.20;;;;;;5056600;28;20597;-69
2022/04/24 11:19:38;;;;;;;0.30;0.30;;;11.50;94.90;;;;;;5056673;28;20265;-68
2022/04/24 11:22:07;;;;;;;0.40;0.40;;;11.40;95.40;;;;;;5054999;28;20193;-68
2022/04/24 11:24:36;;;;;;;0.30;0.30;;;11.40;95.20;;;;;;5056512;28;20543;-68
2022/04/24 11:27:05;;;;;;;0.70;0.70;;;11.20;94.80;;;;;;5056475;28;20536;-67
2022/04/24 11:29:32;;;;;;;0.30;0.30;;;11.10;95.20;;;;;;5056341;28;20281;-68
2022/04/24 11:31:58;;;;;;;0.30;0.30;;;11.00;95.80;;;;;;5055031;28;20174;-67
2022/04/24 11:34:24;;;;;;;0.30;0.30;;;10.90;96.30;;;;;;5056576;28;20409;-68
2022/04/24 11:36:58;;;;;;;0.35;0.35;;;10.80;96.60;;;;;;5056387;28;20804;-67
2022/04/24 11:39:24;;;;;;;0.30;0.30;;;10.70;96.80;;;;;;5056194;28;20194;-67
2022/04/24 11:41:58;;;;;;;0.30;0.30;;;10.90;96.70;;;;;;5056134;28;20173;-67
2022/04/24 11:50:14;;;;;;;0.30;0.30;;;10.80;98.50;;;;;;5056036;28;20251;-67
2022/04/24 11:52:43;;;;;;;0.30;0.30;;;10.90;98.00;;;;;;5056071;28;20174;-68
2022/04/24 11:55:12;;;;;;;0.30;0.30;;;11.00;97.90;;;;;;5054792;28;20551;-67
2022/04/24 11:57:38;;;;;;;0.30;0.30;;;10.70;96.70;;;;;;5056016;28;20556;-68
2022/04/24 12:00:05;;;;;;;0.30;0.30;;;10.80;96.90;;;;;;5055742;28;20186;-68
2022/04/24 12:02:31;;;;;;;0.30;0.30;;;11.00;97.80;;;;;;5055720;28;20441;-67
2022/04/24 12:04:57;;;;;;;0.30;0.30;;;10.90;96.20;;;;;;5055918;28;20603;-68
2022/04/24 12:07:31;;;;;;;0.30;0.30;;;10.90;97.20;;;;;;5055849;28;20582;-67
2022/04/24 12:10:02;;;;;;;0.30;0.30;;;10.90;96.70;;;;;;5055395;28;20197;-68
2022/04/24 12:12:28;;;;;;;0.30;0.30;;;11.20;97.00;;;;;;5055719;28;20170;-67
2022/04/24 12:14:55;;;;;;;0.30;0.30;;;11.30;96.50;;;;;;5055543;28;20209;-68
2022/04/24 12:17:23;;;;;;;0.30;0.30;;;11.40;96.40;;;;;;5055470;28;20289;-67
2022/04/24 12:19:56;;;;;;;0.30;0.30;;;11.50;96.00;;;;;;5055258;28;20190;-69
2022/04/24 12:22:35;;;;;;;0.30;0.30;;;11.50;96.10;;;;;;5055205;28;20217;-68
2022/04/24 12:25:30;;;;;;;0.30;0.30;;;11.30;96.20;;;;;;5055475;28;20193;-68
2022/04/24 12:27:57;;;;;;;0.30;0.30;;;11.30;95.40;;;;;;5046591;28;20243;-68
2022/04/24 12:30:31;;;;;;;0.30;0.30;;;11.20;96.00;;;;;;5055028;28;20243;-67
2022/04/24 12:33:07;;;;;;;0.30;0.30;;;11.20;96.50;;;;;;5055473;28;20265;-68
2022/04/24 12:35:34;;;;;;;0.40;0.40;;;11.20;95.50;;;;;;5055436;28;20158;-68
2022/04/24 12:38:00;;;;;;;0.30;0.30;;;10.20;95.50;;;;;;5055259;28;20209;-67
2022/04/24 12:40:26;;;;;;;0.30;0.30;;;10.10;98.40;;;;;;5054884;28;20190;-68
2022/04/24 12:42:55;;;;;;;0.30;0.30;;;10.50;98.10;;;;;;5055114;28;20265;-68
2022/04/24 12:45:22;;;;;;;0.30;0.30;;;10.60;98.20;;;;;;5055220;28;20166;-66
2022/04/24 12:47:48;;;;;;;0.30;0.30;;;11.00;97.70;;;;;;5054091;28;20223;-67
2022/04/24 12:50:15;;;;;;;0.30;0.30;;;11.20;96.50;;;;;;5054670;28;20225;-67
2022/04/24 12:52:41;;;;;;;0.30;0.30;;;11.20;96.80;;;;;;5053264;28;20178;-67
2022/04/24 12:55:07;;;;;;;0.30;0.30;;;11.40;95.70;;;;;;5054373;28;20253;-68
2022/04/24 12:57:33;;;;;;;0.30;0.30;;;11.60;96.60;;;;;;5054603;28;20202;-68
2022/04/24 12:59:59;;;;;;;0.30;0.30;;;11.80;95.80;;;;;;5053649;28;20197;-68